sensor_id;sensor_type;location;lat;lon;timestamp;pressure;altitude;pressure_sealevel;temperature;humidity
76858;BME280;65830;0.000;0.000;2023-06-04T00:02:18;99866.78;;;19.87;56.71
76858;BME280;65830;0.000;0.000;2023-06-04T00:05:02;99863.66;;;19.90;56.82
76858;BME280;65830;0.000;0.000;2023-06-04T00:07:29;99861.81;;;19.90;56.67
76858;BME280;65830;0.000;0.000;2023-06-04T00:13:44;99858.06;;;19.84;56.65
76858;BME280;65830;0.000;0.000;2023-06-04T00:16:37;99854.00;;;19.74;55.95
76858;BME280;65830;0.000;0.000;2023-06-04T00:19:19;99860.03;;;19.76;56.18
76858;BME280;65830;0.000;0.000;2023-06-04T00:22:17;99854.22;;;19.72;56.25
76858;BME280;65830;0.000;0.000;2023-06-04T00:24:56;99849.13;;;19.62;56.29
76858;BME280;65830;0.000;0.000;2023-06-04T00:28:12;99846.63;;;19.61;56.96
76858;BME280;65830;0.000;0.000;2023-06-04T00:30:37;99852.84;;;19.61;56.75
76858;BME280;65830;0.000;0.000;2023-06-04T00:33:03;99855.34;;;19.63;56.84
76858;BME280;65830;0.000;0.000;2023-06-04T00:35:28;99859.03;;;19.62;57.62
76858;BME280;65830;0.000;0.000;2023-06-04T00:40:54;99851.56;;;19.57;57.76
76858;BME280;65830;0.000;0.000;2023-06-04T00:43:22;99851.94;;;19.54;58.30
76858;BME280;65830;0.000;0.000;2023-06-04T00:45:52;99848.03;;;19.57;58.46
76858;BME280;65830;0.000;0.000;2023-06-04T00:48:17;99856.13;;;19.57;58.45
76858;BME280;65830;0.000;0.000;2023-06-04T00:51:39;99855.22;;;19.50;58.71
76858;BME280;65830;0.000;0.000;2023-06-04T00:54:18;99856.66;;;19.52;59.33
76858;BME280;65830;0.000;0.000;2023-06-04T00:56:45;99856.44;;;19.47;58.64
76858;BME280;65830;0.000;0.000;2023-06-04T00:59:10;99858.31;;;19.47;59.11
76858;BME280;65830;0.000;0.000;2023-06-04T01:01:45;99860.72;;;19.41;59.11
76858;BME280;65830;0.000;0.000;2023-06-04T01:04:18;99860.66;;;19.35;59.28
76858;BME280;65830;0.000;0.000;2023-06-04T01:06:47;99868.47;;;19.30;59.45
76858;BME280;65830;0.000;0.000;2023-06-04T01:09:15;99868.19;;;19.24;59.58
76858;BME280;65830;0.000;0.000;2023-06-04T01:11:40;99876.47;;;19.23;59.74
76858;BME280;65830;0.000;0.000;2023-06-04T01:14:07;99875.06;;;19.27;59.52
76858;BME280;65830;0.000;0.000;2023-06-04T01:16:35;99866.16;;;19.27;60.04
76858;BME280;65830;0.000;0.000;2023-06-04T01:19:04;99871.47;;;19.20;60.19
76858;BME280;65830;0.000;0.000;2023-06-04T01:21:36;99876.47;;;19.23;60.21
76858;BME280;65830;0.000;0.000;2023-06-04T01:24:04;99876.47;;;19.23;59.68
76858;BME280;65830;0.000;0.000;2023-06-04T01:26:32;99875.19;;;19.19;60.13
76858;BME280;65830;0.000;0.000;2023-06-04T01:28:58;99871.63;;;19.18;60.05
76858;BME280;65830;0.000;0.000;2023-06-04T01:31:24;99874.72;;;19.15;60.04
76858;BME280;65830;0.000;0.000;2023-06-04T01:37:08;99879.00;;;19.10;60.47
76858;BME280;65830;0.000;0.000;2023-06-04T01:39:34;99877.13;;;19.10;60.52
76858;BME280;65830;0.000;0.000;2023-06-04T01:41:59;99879.19;;;19.08;60.49
76858;BME280;65830;0.000;0.000;2023-06-04T01:44:25;99872.34;;;19.05;60.48
76858;BME280;65830;0.000;0.000;2023-06-04T01:46:50;99869.81;;;19.04;60.67
76858;BME280;65830;0.000;0.000;2023-06-04T01:49:16;99872.53;;;19.04;60.71
76858;BME280;65830;0.000;0.000;2023-06-04T01:51:42;99874.56;;;19.02;60.90
76858;BME280;65830;0.000;0.000;2023-06-04T01:54:07;99870.41;;;18.99;60.80
76858;BME280;65830;0.000;0.000;2023-06-04T01:56:34;99870.41;;;18.99;60.96
76858;BME280;65830;0.000;0.000;2023-06-04T01:59:34;99877.81;;;18.97;61.14
76858;BME280;65830;0.000;0.000;2023-06-04T02:05:40;99889.78;;;18.95;61.31
76858;BME280;65830;0.000;0.000;2023-06-04T02:08:12;99885.63;;;18.92;61.37
76858;BME280;65830;0.000;0.000;2023-06-04T02:10:42;99884.31;;;18.88;61.62
76858;BME280;65830;0.000;0.000;2023-06-04T02:13:34;99887.19;;;18.87;62.33
76858;BME280;65830;0.000;0.000;2023-06-04T02:16:03;99885.16;;;18.89;62.45
76858;BME280;65830;0.000;0.000;2023-06-04T02:18:29;99897.41;;;18.91;62.28
76858;BME280;65830;0.000;0.000;2023-06-04T02:21:03;99897.75;;;18.88;61.76
76858;BME280;65830;0.000;0.000;2023-06-04T02:24:01;99900.84;;;18.85;61.72
76858;BME280;65830;0.000;0.000;2023-06-04T02:27:05;99906.59;;;18.82;61.87
76858;BME280;65830;0.000;0.000;2023-06-04T02:30:12;99910.81;;;18.76;61.91
76858;BME280;65830;0.000;0.000;2023-06-04T02:33:52;99911.63;;;18.77;61.96
76858;BME280;65830;0.000;0.000;2023-06-04T02:36:21;99918.03;;;18.76;62.12
76858;BME280;65830;0.000;0.000;2023-06-04T02:38:59;99920.19;;;18.80;61.94
76858;BME280;65830;0.000;0.000;2023-06-04T02:41:44;99919.25;;;18.73;62.10
76858;BME280;65830;0.000;0.000;2023-06-04T02:47:26;99923.13;;;18.71;62.44
76858;BME280;65830;0.000;0.000;2023-06-04T02:50:01;99919.25;;;18.73;62.45
76858;BME280;65830;0.000;0.000;2023-06-04T02:52:32;99922.31;;;18.70;62.61
76858;BME280;65830;0.000;0.000;2023-06-04T02:55:14;99923.53;;;18.68;62.58
76858;BME280;65830;0.000;0.000;2023-06-04T02:58:00;99924.53;;;18.66;62.47
76858;BME280;65830;0.000;0.000;2023-06-04T03:00:26;99921.19;;;18.64;62.63
76858;BME280;65830;0.000;0.000;2023-06-04T03:02:52;99931.47;;;18.61;62.76
76858;BME280;65830;0.000;0.000;2023-06-04T03:08:08;99936.00;;;18.60;63.00
76858;BME280;65830;0.000;0.000;2023-06-04T03:10:44;99935.84;;;18.62;63.11
76858;BME280;65830;0.000;0.000;2023-06-04T03:17:04;99945.13;;;18.59;63.32
76858;BME280;65830;0.000;0.000;2023-06-04T03:20:00;99946.41;;;18.63;63.04
76858;BME280;65830;0.000;0.000;2023-06-04T03:22:29;99947.25;;;18.64;62.95
76858;BME280;65830;0.000;0.000;2023-06-04T03:25:34;99949.75;;;18.65;62.81
76858;BME280;65830;0.000;0.000;2023-06-04T03:31:00;99950.66;;;18.73;63.17
76858;BME280;65830;0.000;0.000;2023-06-04T03:34:08;99955.22;;;18.72;62.96
76858;BME280;65830;0.000;0.000;2023-06-04T03:36:21;99962.38;;;18.80;63.49
76858;BME280;65830;0.000;0.000;2023-06-04T03:48:20;99970.53;;;19.01;62.59
76858;BME280;65830;0.000;0.000;2023-06-04T03:50:51;99966.06;;;19.09;62.47
76858;BME280;65830;0.000;0.000;2023-06-04T03:53:17;99971.44;;;19.09;61.81
76858;BME280;65830;0.000;0.000;2023-06-04T03:55:43;99972.56;;;19.14;61.52
76858;BME280;65830;0.000;0.000;2023-06-04T03:58:08;99979.81;;;19.14;61.29
76858;BME280;65830;0.000;0.000;2023-06-04T04:00:38;99977.47;;;19.11;61.81
76858;BME280;65830;0.000;0.000;2023-06-04T04:03:04;99976.47;;;19.12;61.68
76858;BME280;65830;0.000;0.000;2023-06-04T04:05:33;99982.19;;;19.09;61.13
76858;BME280;65830;0.000;0.000;2023-06-04T04:07:58;99985.53;;;19.11;61.54
76858;BME280;65830;0.000;0.000;2023-06-04T04:10:28;99990.09;;;19.10;61.45
76858;BME280;65830;0.000;0.000;2023-06-04T04:12:54;99992.13;;;19.08;61.93
76858;BME280;65830;0.000;0.000;2023-06-04T04:15:21;99993.53;;;19.19;62.05
76858;BME280;65830;0.000;0.000;2023-06-04T04:17:48;100002.25;;;19.21;61.77
76858;BME280;65830;0.000;0.000;2023-06-04T04:20:14;100003.09;;;19.21;61.57
76858;BME280;65830;0.000;0.000;2023-06-04T04:22:46;99996.94;;;19.28;61.75
76858;BME280;65830;0.000;0.000;2023-06-04T04:25:14;99998.81;;;19.27;61.48
76858;BME280;65830;0.000;0.000;2023-06-04T04:27:39;100001.88;;;19.24;61.13
76858;BME280;65830;0.000;0.000;2023-06-04T04:30:07;100005.38;;;19.24;61.67
76858;BME280;65830;0.000;0.000;2023-06-04T04:32:33;100000.69;;;19.27;61.03
76858;BME280;65830;0.000;0.000;2023-06-04T04:34:59;100006.88;;;19.27;61.73
76858;BME280;65830;0.000;0.000;2023-06-04T04:37:32;100001.88;;;19.24;61.26
76858;BME280;65830;0.000;0.000;2023-06-04T04:39:58;100011.44;;;19.27;61.39
76858;BME280;65830;0.000;0.000;2023-06-04T04:42:26;100021.09;;;19.21;61.02
76858;BME280;65830;0.000;0.000;2023-06-04T04:44:51;100019.22;;;19.21;61.07
76858;BME280;65830;0.000;0.000;2023-06-04T04:47:20;100023.31;;;19.17;60.85
76858;BME280;65830;0.000;0.000;2023-06-04T04:49:46;100022.38;;;19.10;61.36
76858;BME280;65830;0.000;0.000;2023-06-04T04:52:12;100023.50;;;19.16;61.34
76858;BME280;65830;0.000;0.000;2023-06-04T04:54:40;100026.00;;;19.17;60.95
76858;BME280;65830;0.000;0.000;2023-06-04T04:57:05;100023.31;;;19.17;60.94
76858;BME280;65830;0.000;0.000;2023-06-04T04:59:33;100024.53;;;19.15;61.27
76858;BME280;65830;0.000;0.000;2023-06-04T05:01:59;100026.56;;;19.13;60.98
76858;BME280;65830;0.000;0.000;2023-06-04T05:04:24;100024.88;;;19.12;61.10
76858;BME280;65830;0.000;0.000;2023-06-04T05:06:50;100028.22;;;19.14;61.04
76858;BME280;65830;0.000;0.000;2023-06-04T05:09:16;100023.31;;;19.17;61.11
76858;BME280;65830;0.000;0.000;2023-06-04T05:11:42;100031.19;;;19.19;60.81
76858;BME280;65830;0.000;0.000;2023-06-04T05:14:08;100027.59;;;19.27;60.85
76858;BME280;65830;0.000;0.000;2023-06-04T05:16:35;100030.53;;;19.32;60.81
76858;BME280;65830;0.000;0.000;2023-06-04T05:19:01;100034.34;;;19.37;60.40
76858;BME280;65830;0.000;0.000;2023-06-04T05:21:32;100037.09;;;19.44;60.32
76858;BME280;65830;0.000;0.000;2023-06-04T05:24:02;100039.78;;;19.44;60.53
76858;BME280;65830;0.000;0.000;2023-06-04T05:26:31;100041.94;;;19.49;60.34
76858;BME280;65830;0.000;0.000;2023-06-04T05:29:02;100047.69;;;19.60;61.76
76858;BME280;65830;0.000;0.000;2023-06-04T05:31:33;100041.72;;;19.65;59.94
76858;BME280;65830;0.000;0.000;2023-06-04T05:34:02;100050.44;;;19.67;60.24
76858;BME280;65830;0.000;0.000;2023-06-04T05:36:31;100047.03;;;19.73;60.24
76858;BME280;65830;0.000;0.000;2023-06-04T05:38:59;100057.44;;;19.76;60.52
76858;BME280;65830;0.000;0.000;2023-06-04T05:41:36;100057.13;;;19.86;60.24
76858;BME280;65830;0.000;0.000;2023-06-04T05:44:03;100063.97;;;19.89;60.17
76858;BME280;65830;0.000;0.000;2023-06-04T05:46:29;100066.28;;;19.92;59.94
76858;BME280;65830;0.000;0.000;2023-06-04T05:48:55;100061.53;;;19.94;59.97
76858;BME280;65830;0.000;0.000;2023-06-04T05:51:22;100072.31;;;19.94;60.41
76858;BME280;65830;0.000;0.000;2023-06-04T05:53:47;100066.19;;;20.00;60.09
76858;BME280;65830;0.000;0.000;2023-06-04T05:56:14;100071.56;;;20.00;59.88
76858;BME280;65830;0.000;0.000;2023-06-04T05:58:40;100078.63;;;20.01;59.72
76858;BME280;65830;0.000;0.000;2023-06-04T06:01:07;100077.97;;;19.99;59.95
76858;BME280;65830;0.000;0.000;2023-06-04T06:03:33;100082.78;;;20.03;59.88
76858;BME280;65830;0.000;0.000;2023-06-04T06:05:58;100089.25;;;20.09;60.05
76858;BME280;65830;0.000;0.000;2023-06-04T06:08:26;100088.03;;;20.12;59.70
76858;BME280;65830;0.000;0.000;2023-06-04T06:10:52;100093.69;;;20.17;59.74
76858;BME280;65830;0.000;0.000;2023-06-04T06:13:18;100098.13;;;20.24;60.04
76858;BME280;65830;0.000;0.000;2023-06-04T06:15:45;100095.13;;;20.34;59.48
76858;BME280;65830;0.000;0.000;2023-06-04T06:18:11;100089.63;;;20.42;60.03
76858;BME280;65830;0.000;0.000;2023-06-04T06:20:36;100099.66;;;20.55;59.03
76858;BME280;65830;0.000;0.000;2023-06-04T06:23:05;100097.66;;;20.57;59.07
76858;BME280;65830;0.000;0.000;2023-06-04T06:25:32;100097.66;;;20.57;58.94
76858;BME280;65830;0.000;0.000;2023-06-04T06:28:03;100103.56;;;20.68;58.94
76858;BME280;65830;0.000;0.000;2023-06-04T06:30:29;100104.59;;;20.67;58.92
76858;BME280;65830;0.000;0.000;2023-06-04T06:32:54;100094.09;;;20.78;59.19
76858;BME280;65830;0.000;0.000;2023-06-04T06:35:19;100101.72;;;20.96;58.03
76858;BME280;65830;0.000;0.000;2023-06-04T06:37:45;100101.78;;;21.03;58.06
76858;BME280;65830;0.000;0.000;2023-06-04T06:40:11;100097.06;;;21.12;58.00
76858;BME280;65830;0.000;0.000;2023-06-04T06:42:36;100105.00;;;21.20;58.29
76858;BME280;65830;0.000;0.000;2023-06-04T06:45:02;100106.25;;;21.24;58.13
76858;BME280;65830;0.000;0.000;2023-06-04T06:47:27;100110.06;;;21.36;57.73
76858;BME280;65830;0.000;0.000;2023-06-04T06:49:53;100113.81;;;21.35;58.01
76858;BME280;65830;0.000;0.000;2023-06-04T06:52:19;100108.88;;;21.39;57.39
76858;BME280;65830;0.000;0.000;2023-06-04T06:54:45;100113.84;;;21.42;57.40
76858;BME280;65830;0.000;0.000;2023-06-04T06:57:11;100117.66;;;21.48;57.20
76858;BME280;65830;0.000;0.000;2023-06-04T06:59:37;100113.50;;;21.45;57.04
76858;BME280;65830;0.000;0.000;2023-06-04T07:02:03;100116.38;;;21.44;56.80
76858;BME280;65830;0.000;0.000;2023-06-04T07:04:28;100117.59;;;21.41;57.79
76858;BME280;65830;0.000;0.000;2023-06-04T07:06:54;100121.63;;;21.52;57.71
76858;BME280;65830;0.000;0.000;2023-06-04T07:09:19;100123.69;;;21.50;57.29
76858;BME280;65830;0.000;0.000;2023-06-04T07:11:45;100130.34;;;21.47;57.34
76858;BME280;65830;0.000;0.000;2023-06-04T07:14:11;100122.78;;;21.42;57.47
76858;BME280;65830;0.000;0.000;2023-06-04T07:16:36;100118.09;;;21.51;57.34
76858;BME280;65830;0.000;0.000;2023-06-04T07:19:02;100134.50;;;21.56;57.42
76858;BME280;65830;0.000;0.000;2023-06-04T07:21:27;100137.22;;;21.56;57.53
76858;BME280;65830;0.000;0.000;2023-06-04T07:23:53;100139.53;;;21.59;57.94
76858;BME280;65830;0.000;0.000;2023-06-04T07:26:18;100143.69;;;21.62;57.88
76858;BME280;65830;0.000;0.000;2023-06-04T07:28:44;100139.72;;;21.58;57.90
76858;BME280;65830;0.000;0.000;2023-06-04T07:31:09;100141.94;;;21.48;57.91
76858;BME280;65830;0.000;0.000;2023-06-04T07:33:35;100143.81;;;21.47;58.60
76858;BME280;65830;0.000;0.000;2023-06-04T07:36:17;100144.66;;;21.48;58.37
76858;BME280;65830;0.000;0.000;2023-06-04T07:38:45;100151.75;;;21.55;58.30
76858;BME280;65830;0.000;0.000;2023-06-04T07:41:11;100152.22;;;21.59;58.35
76858;BME280;65830;0.000;0.000;2023-06-04T07:43:36;100148.91;;;21.64;58.74
76858;BME280;65830;0.000;0.000;2023-06-04T07:46:03;100150.16;;;21.68;58.95
76858;BME280;65830;0.000;0.000;2023-06-04T07:48:28;100158.72;;;21.71;59.00
76858;BME280;65830;0.000;0.000;2023-06-04T07:51:00;100154.75;;;21.74;58.93
76858;BME280;65830;0.000;0.000;2023-06-04T07:53:26;100160.13;;;21.67;58.91
76858;BME280;65830;0.000;0.000;2023-06-04T07:55:52;100163.47;;;21.69;59.44
76858;BME280;65830;0.000;0.000;2023-06-04T07:58:18;100163.66;;;21.68;59.09
76858;BME280;65830;0.000;0.000;2023-06-04T08:00:43;100160.94;;;21.61;59.33
76858;BME280;65830;0.000;0.000;2023-06-04T08:03:09;100159.88;;;21.62;60.22
76858;BME280;65830;0.000;0.000;2023-06-04T08:05:35;100158.88;;;21.63;59.23
76858;BME280;65830;0.000;0.000;2023-06-04T08:08:01;100156.00;;;21.71;59.48
76858;BME280;65830;0.000;0.000;2023-06-04T08:10:27;100154.13;;;21.72;59.90
76858;BME280;65830;0.000;0.000;2023-06-04T08:12:52;100164.09;;;21.71;59.34
76858;BME280;65830;0.000;0.000;2023-06-04T08:15:18;100160.22;;;21.80;58.92
76858;BME280;65830;0.000;0.000;2023-06-04T08:17:53;100165.00;;;21.78;58.88
76858;BME280;65830;0.000;0.000;2023-06-04T08:20:23;100164.13;;;21.78;59.06
76858;BME280;65830;0.000;0.000;2023-06-04T08:22:59;100153.75;;;21.75;59.55
76858;BME280;65830;0.000;0.000;2023-06-04T08:25:26;100159.97;;;21.75;59.71
76858;BME280;65830;0.000;0.000;2023-06-04T08:28:06;100154.38;;;21.77;60.01
76858;BME280;65830;0.000;0.000;2023-06-04T08:30:52;100164.34;;;21.76;60.10
76858;BME280;65830;0.000;0.000;2023-06-04T08:33:33;100163.38;;;21.91;59.61
76858;BME280;65830;0.000;0.000;2023-06-04T08:36:01;100168.16;;;21.95;59.16
76858;BME280;65830;0.000;0.000;2023-06-04T08:38:27;100170.25;;;22.00;58.50
76858;BME280;65830;0.000;0.000;2023-06-04T08:40:52;100165.91;;;21.99;57.61
76858;BME280;65830;0.000;0.000;2023-06-04T08:43:21;100169.06;;;22.09;56.87
76858;BME280;65830;0.000;0.000;2023-06-04T08:45:48;100174.88;;;22.06;56.32
76858;BME280;65830;0.000;0.000;2023-06-04T08:48:14;100166.09;;;21.97;54.49
76858;BME280;65830;0.000;0.000;2023-06-04T08:50:41;100173.38;;;21.90;54.84
76858;BME280;65830;0.000;0.000;2023-06-04T08:53:08;100175.00;;;21.85;55.08
76858;BME280;65830;0.000;0.000;2023-06-04T08:55:36;100174.25;;;22.04;56.11
76858;BME280;65830;0.000;0.000;2023-06-04T08:58:01;100173.25;;;22.18;56.54
76858;BME280;65830;0.000;0.000;2023-06-04T09:00:28;100180.75;;;22.16;57.80
76858;BME280;65830;0.000;0.000;2023-06-04T09:02:54;100172.81;;;22.08;58.17
76858;BME280;65830;0.000;0.000;2023-06-04T09:05:21;100185.06;;;22.04;57.83
76858;BME280;65830;0.000;0.000;2023-06-04T09:07:47;100180.50;;;22.05;57.79
76858;BME280;65830;0.000;0.000;2023-06-04T09:10:15;100169.25;;;22.08;57.36
76858;BME280;65830;0.000;0.000;2023-06-04T09:12:43;100176.97;;;22.11;58.98
76858;BME280;65830;0.000;0.000;2023-06-04T09:15:12;100173.66;;;22.15;56.67
76858;BME280;65830;0.000;0.000;2023-06-04T09:17:37;100179.53;;;22.26;55.42
76858;BME280;65830;0.000;0.000;2023-06-04T09:22:35;100178.25;;;22.21;56.53
76858;BME280;65830;0.000;0.000;2023-06-04T09:25:03;100183.94;;;22.27;56.95
76858;BME280;65830;0.000;0.000;2023-06-04T09:27:36;100177.47;;;22.28;56.95
76858;BME280;65830;0.000;0.000;2023-06-04T09:30:02;100171.22;;;22.27;56.33
76858;BME280;65830;0.000;0.000;2023-06-04T09:32:28;100170.41;;;22.27;56.68
76858;BME280;65830;0.000;0.000;2023-06-04T09:34:55;100180.41;;;22.39;56.19
76858;BME280;65830;0.000;0.000;2023-06-04T09:37:22;100179.59;;;22.39;55.55
76858;BME280;65830;0.000;0.000;2023-06-04T09:39:57;100175.25;;;22.38;55.77
76858;BME280;65830;0.000;0.000;2023-06-04T09:42:23;100176.69;;;22.47;56.04
76858;BME280;65830;0.000;0.000;2023-06-04T09:44:48;100178.38;;;22.48;56.02
76858;BME280;65830;0.000;0.000;2023-06-04T09:47:14;100176.72;;;22.60;55.82
76858;BME280;65830;0.000;0.000;2023-06-04T09:49:44;100181.75;;;22.70;56.17
76858;BME280;65830;0.000;0.000;2023-06-04T09:52:10;100180.09;;;22.76;55.36
76858;BME280;65830;0.000;0.000;2023-06-04T09:54:36;100173.44;;;22.85;55.27
76858;BME280;65830;0.000;0.000;2023-06-04T09:57:02;100181.78;;;22.90;53.55
76858;BME280;65830;0.000;0.000;2023-06-04T09:59:30;100179.50;;;22.94;52.85
76858;BME280;65830;0.000;0.000;2023-06-04T10:01:57;100185.53;;;22.96;52.87
76858;BME280;65830;0.000;0.000;2023-06-04T10:04:24;100184.69;;;22.95;52.78
76858;BME280;65830;0.000;0.000;2023-06-04T10:06:52;100175.13;;;23.13;52.17
76858;BME280;65830;0.000;0.000;2023-06-04T10:09:17;100183.25;;;23.13;52.46
76858;BME280;65830;0.000;0.000;2023-06-04T10:11:46;100183.06;;;23.21;52.40
76858;BME280;65830;0.000;0.000;2023-06-04T10:16:38;100174.72;;;23.29;52.29
76858;BME280;65830;0.000;0.000;2023-06-04T10:19:05;100165.94;;;23.40;52.88
76858;BME280;65830;0.000;0.000;2023-06-04T10:21:32;100166.38;;;23.51;49.91
76858;BME280;65830;0.000;0.000;2023-06-04T10:24:00;100169.28;;;23.49;49.53
76858;BME280;65830;0.000;0.000;2023-06-04T10:26:26;100158.88;;;23.53;47.98
76858;BME280;65830;0.000;0.000;2023-06-04T10:28:51;100162.00;;;23.50;46.50
76858;BME280;65830;0.000;0.000;2023-06-04T10:31:18;100160.97;;;23.51;46.28
76858;BME280;65830;0.000;0.000;2023-06-04T10:33:43;100163.44;;;23.59;46.44
76858;BME280;65830;0.000;0.000;2023-06-04T10:36:15;100159.06;;;23.65;46.50
76858;BME280;65830;0.000;0.000;2023-06-04T10:38:48;100163.63;;;23.77;48.03
76858;BME280;65830;0.000;0.000;2023-06-04T10:41:14;100158.19;;;23.77;48.45
76858;BME280;65830;0.000;0.000;2023-06-04T10:43:42;100155.44;;;23.91;49.07
76858;BME280;65830;0.000;0.000;2023-06-04T10:46:14;100157.47;;;24.02;48.91
76858;BME280;65830;0.000;0.000;2023-06-04T10:48:52;100152.84;;;24.09;49.54
76858;BME280;65830;0.000;0.000;2023-06-04T10:51:33;100148.25;;;24.16;50.88
76858;BME280;65830;0.000;0.000;2023-06-04T10:54:00;100144.84;;;24.28;46.67
76858;BME280;65830;0.000;0.000;2023-06-04T10:56:26;100144.16;;;24.39;50.35
76858;BME280;65830;0.000;0.000;2023-06-04T10:58:52;100147.22;;;24.49;52.06
76858;BME280;65830;0.000;0.000;2023-06-04T11:01:27;100145.38;;;24.43;51.86
76858;BME280;65830;0.000;0.000;2023-06-04T11:03:57;100150.63;;;24.38;51.86
76858;BME280;65830;0.000;0.000;2023-06-04T11:06:22;100145.38;;;24.43;51.97
76858;BME280;65830;0.000;0.000;2023-06-04T11:09:00;100147.44;;;24.54;52.20
76858;BME280;65830;0.000;0.000;2023-06-04T11:11:26;100150.81;;;24.43;51.39
76858;BME280;65830;0.000;0.000;2023-06-04T11:13:51;100153.28;;;24.51;51.68
76858;BME280;65830;0.000;0.000;2023-06-04T11:16:18;100140.25;;;24.67;48.15
76858;BME280;65830;0.000;0.000;2023-06-04T11:18:53;100136.22;;;24.76;45.58
76858;BME280;65830;0.000;0.000;2023-06-04T11:21:19;100140.19;;;24.98;46.73
76858;BME280;65830;0.000;0.000;2023-06-04T11:23:45;100152.00;;;25.11;48.16
76858;BME280;65830;0.000;0.000;2023-06-04T11:26:10;100157.06;;;25.32;45.93
76858;BME280;65830;0.000;0.000;2023-06-04T11:28:36;100143.34;;;25.27;45.52
76858;BME280;65830;0.000;0.000;2023-06-04T11:31:02;100147.31;;;25.25;48.27
76858;BME280;65830;0.000;0.000;2023-06-04T11:33:28;100149.91;;;25.38;45.72
76858;BME280;65830;0.000;0.000;2023-06-04T11:35:54;100142.28;;;25.47;46.08
76858;BME280;65830;0.000;0.000;2023-06-04T11:38:19;100152.09;;;25.66;46.55
76858;BME280;65830;0.000;0.000;2023-06-04T11:40:54;100149.03;;;25.81;45.53
76858;BME280;65830;0.000;0.000;2023-06-04T11:43:19;100146.38;;;26.11;43.37
76858;BME280;65830;0.000;0.000;2023-06-04T11:45:45;100150.13;;;26.29;43.12
76858;BME280;65830;0.000;0.000;2023-06-04T11:48:11;100145.53;;;26.41;42.88
76858;BME280;65830;0.000;0.000;2023-06-04T11:50:37;100134.50;;;26.36;43.82
76858;BME280;65830;0.000;0.000;2023-06-04T11:53:02;100147.81;;;26.44;43.15
76858;BME280;65830;0.000;0.000;2023-06-04T11:55:27;100139.88;;;26.73;40.75
76858;BME280;65830;0.000;0.000;2023-06-04T11:57:53;100136.59;;;26.94;40.92
76858;BME280;65830;0.000;0.000;2023-06-04T12:00:19;100144.78;;;27.18;41.67
76858;BME280;65830;0.000;0.000;2023-06-04T12:02:49;100141.13;;;27.24;42.23
76858;BME280;65830;0.000;0.000;2023-06-04T12:05:16;100135.44;;;27.26;41.43
76858;BME280;65830;0.000;0.000;2023-06-04T12:07:45;100138.25;;;27.07;40.38
76858;BME280;65830;0.000;0.000;2023-06-04T12:10:11;100138.50;;;27.06;39.94
76858;BME280;65830;0.000;0.000;2023-06-04T12:12:39;100148.47;;;27.24;42.17
76858;BME280;65830;0.000;0.000;2023-06-04T12:15:08;100142.88;;;27.54;41.61
76858;BME280;65830;0.000;0.000;2023-06-04T12:17:35;100142.63;;;27.67;42.33
76858;BME280;65830;0.000;0.000;2023-06-04T12:20:01;100147.34;;;27.96;41.42
76858;BME280;65830;0.000;0.000;2023-06-04T12:22:26;100146.78;;;28.10;41.89
76858;BME280;65830;0.000;0.000;2023-06-04T12:24:53;100150.66;;;27.98;40.70
76858;BME280;65830;0.000;0.000;2023-06-04T12:27:19;100153.41;;;27.62;41.25
76858;BME280;65830;0.000;0.000;2023-06-04T12:29:56;100153.44;;;27.50;41.46
76858;BME280;65830;0.000;0.000;2023-06-04T12:32:22;100150.13;;;27.25;41.87
76858;BME280;65830;0.000;0.000;2023-06-04T12:34:48;100155.28;;;27.03;41.54
76858;BME280;65830;0.000;0.000;2023-06-04T12:37:13;100153.28;;;26.98;42.33
76858;BME280;65830;0.000;0.000;2023-06-04T12:39:39;100151.84;;;26.95;42.92
76858;BME280;65830;0.000;0.000;2023-06-04T12:42:05;100164.78;;;27.12;42.67
76858;BME280;65830;0.000;0.000;2023-06-04T12:44:32;100145.63;;;27.30;41.37
76858;BME280;65830;0.000;0.000;2023-06-04T12:46:57;100151.66;;;27.44;42.61
76858;BME280;65830;0.000;0.000;2023-06-04T12:49:23;100148.34;;;27.42;41.65
76858;BME280;65830;0.000;0.000;2023-06-04T12:51:49;100149.16;;;27.43;41.94
76858;BME280;65830;0.000;0.000;2023-06-04T12:54:14;100147.31;;;27.31;40.62
76858;BME280;65830;0.000;0.000;2023-06-04T12:56:40;100148.31;;;27.19;41.86
76858;BME280;65830;0.000;0.000;2023-06-04T12:59:07;100147.50;;;27.18;41.98
76858;BME280;65830;0.000;0.000;2023-06-04T13:01:32;100139.34;;;27.30;42.55
76858;BME280;65830;0.000;0.000;2023-06-04T13:03:58;100146.44;;;27.43;41.88
76858;BME280;65830;0.000;0.000;2023-06-04T13:06:23;100138.25;;;27.43;40.93
76858;BME280;65830;0.000;0.000;2023-06-04T13:08:49;100134.16;;;27.81;41.36
76858;BME280;65830;0.000;0.000;2023-06-04T13:11:14;100137.56;;;28.11;41.12
76858;BME280;65830;0.000;0.000;2023-06-04T13:13:40;100142.13;;;28.51;40.82
76858;BME280;65830;0.000;0.000;2023-06-04T13:16:07;100134.06;;;28.57;40.19
76858;BME280;65830;0.000;0.000;2023-06-04T13:18:32;100131.16;;;28.63;39.83
76858;BME280;65830;0.000;0.000;2023-06-04T13:20:58;100129.34;;;28.69;40.06
76858;BME280;65830;0.000;0.000;2023-06-04T13:23:23;100135.56;;;28.64;38.22
76858;BME280;65830;0.000;0.000;2023-06-04T13:25:49;100132.84;;;28.98;39.18
76858;BME280;65830;0.000;0.000;2023-06-04T13:28:14;100123.63;;;29.21;38.98
76858;BME280;65830;0.000;0.000;2023-06-04T13:30:41;100127.22;;;29.22;37.91
76858;BME280;65830;0.000;0.000;2023-06-04T13:33:24;100124.06;;;29.13;38.32
76858;BME280;65830;0.000;0.000;2023-06-04T13:36:06;100116.78;;;28.85;38.06
76858;BME280;65830;0.000;0.000;2023-06-04T13:38:35;100122.72;;;28.65;38.38
76858;BME280;65830;0.000;0.000;2023-06-04T13:41:01;100120.56;;;28.67;39.93
76858;BME280;65830;0.000;0.000;2023-06-04T13:43:32;100120.63;;;28.72;39.02
76858;BME280;65830;0.000;0.000;2023-06-04T13:46:02;100124.88;;;28.97;38.31
76858;BME280;65830;0.000;0.000;2023-06-04T13:48:27;100127.25;;;29.44;37.84
76858;BME280;65830;0.000;0.000;2023-06-04T13:50:56;100126.03;;;29.74;38.22
76858;BME280;65830;0.000;0.000;2023-06-04T13:53:21;100120.28;;;29.97;37.56
76858;BME280;65830;0.000;0.000;2023-06-04T13:55:56;100123.44;;;30.11;37.31